createdAt,value
2019-01-12T00:00:38.043Z,943.97
2019-01-12T00:03:06.335Z,882.60
2019-01-12T00:05:34.889Z,921.00
2019-01-12T00:08:03.446Z,812.63
2019-01-12T00:10:31.831Z,686.50
2019-01-12T00:13:00.134Z,805.20
2019-01-12T00:15:28.423Z,787.47
2019-01-12T00:17:56.982Z,770.93
2019-01-12T00:20:25.261Z,846.00
2019-01-12T00:22:53.563Z,953.33
2019-01-12T00:25:21.855Z,911.27
2019-01-12T00:27:50.154Z,768.23
2019-01-12T00:30:18.442Z,723.53
2019-01-12T00:32:46.751Z,750.73
2019-01-12T00:35:15.039Z,749.97
2019-01-12T00:37:43.354Z,745.63
2019-01-12T00:40:11.711Z,855.93
2019-01-12T00:42:40.012Z,915.63
2019-01-12T00:45:09.031Z,658.67
2019-01-12T00:47:37.343Z,961.60
2019-01-12T00:50:06.233Z,819.57
2019-01-12T00:52:34.808Z,718.43
2019-01-12T00:55:03.423Z,679.90
2019-01-12T00:57:31.771Z,786.97
2019-01-12T01:00:00.097Z,773.13
2019-01-12T01:02:28.510Z,658.03
2019-01-12T01:04:56.810Z,806.97
2019-01-12T01:07:25.104Z,831.03
2019-01-12T01:09:53.401Z,697.03
2019-01-12T01:12:21.702Z,629.60
2019-01-12T01:14:49.999Z,866.67
2019-01-12T01:17:18.545Z,667.93
2019-01-12T01:19:47.107Z,797.77
2019-01-12T01:22:15.399Z,786.57
2019-01-12T01:24:45.892Z,686.63
2019-01-12T01:27:13.958Z,671.60
2019-01-12T01:29:42.255Z,665.77
2019-01-12T01:32:10.539Z,654.90
2019-01-12T01:34:38.855Z,783.00
2019-01-12T01:37:07.503Z,770.40
2019-01-12T01:39:35.807Z,544.17
2019-01-12T01:42:04.186Z,631.07
2019-01-12T01:44:32.481Z,668.53
2019-01-12T01:47:01.175Z,868.50
2019-01-12T01:49:29.479Z,427.10
2019-01-12T01:51:58.115Z,759.13
2019-01-12T01:54:26.404Z,694.77
2019-01-12T01:56:54.985Z,695.03
2019-01-12T01:59:23.283Z,578.60
2019-01-12T02:01:51.979Z,734.63
2019-01-12T02:04:20.286Z,583.70
2019-01-12T02:06:48.578Z,597.53
2019-01-12T02:09:17.249Z,665.00
2019-01-12T02:11:45.650Z,590.87
2019-01-12T02:14:13.971Z,701.40
2019-01-12T02:16:42.303Z,698.20
2019-01-12T02:19:10.685Z,891.37
2019-01-12T02:21:38.978Z,619.40
2019-01-12T02:24:07.614Z,722.27
2019-01-12T02:26:35.902Z,654.47
2019-01-12T02:29:04.631Z,713.60
2019-01-12T02:31:32.927Z,699.80
2019-01-12T02:34:01.222Z,712.63
2019-01-12T02:36:29.584Z,714.23
2019-01-12T02:38:57.869Z,743.20
2019-01-12T02:41:26.567Z,786.70
2019-01-12T02:43:54.854Z,828.70
2019-01-12T02:46:23.157Z,917.27
2019-01-12T02:48:51.447Z,831.30
2019-01-12T02:51:19.746Z,927.83
2019-01-12T02:53:48.025Z,690.17
2019-01-12T02:56:16.393Z,771.73
2019-01-12T02:58:44.689Z,524.40
2019-01-12T03:01:12.981Z,819.93
2019-01-12T03:03:41.262Z,737.77
2019-01-12T03:06:09.652Z,648.43
2019-01-12T03:08:37.937Z,658.97
2019-01-12T03:11:06.240Z,574.60
2019-01-12T03:13:34.527Z,597.00
2019-01-12T03:16:02.834Z,555.30
2019-01-12T03:18:31.201Z,853.97
2019-01-12T03:20:59.498Z,766.10
2019-01-12T03:23:27.793Z,779.10
2019-01-12T03:25:56.084Z,795.20
2019-01-12T03:28:24.376Z,687.03
2019-01-12T03:30:52.663Z,663.47
2019-01-12T03:33:20.954Z,697.23
2019-01-12T03:35:49.319Z,632.70
2019-01-12T03:38:17.606Z,662.23
2019-01-12T03:40:45.899Z,612.07
2019-01-12T03:43:14.186Z,581.87
2019-01-12T03:45:42.590Z,847.13
2019-01-12T03:48:10.885Z,461.80
2019-01-12T03:50:39.180Z,665.03
2019-01-12T03:53:07.731Z,641.87
2019-01-12T03:55:36.090Z,564.67
2019-01-12T03:58:04.450Z,602.80
2019-01-12T04:00:32.815Z,641.17
2019-01-12T04:03:01.114Z,657.90
2019-01-12T04:05:29.402Z,731.00
2019-01-12T04:07:57.694Z,708.43
2019-01-12T04:10:25.978Z,764.47
2019-01-12T04:12:54.294Z,770.63
2019-01-12T04:15:22.851Z,828.80
2019-01-12T04:17:51.238Z,798.23
2019-01-12T04:20:19.661Z,829.63
2019-01-12T04:22:47.952Z,822.27
2019-01-12T04:25:16.247Z,868.00
2019-01-12T04:27:44.538Z,844.87
2019-01-12T04:30:13.975Z,918.90
2019-01-12T04:32:42.338Z,892.20
2019-01-12T04:35:10.698Z,859.70
2019-01-12T04:37:39.015Z,929.20
2019-01-12T04:40:08.565Z,918.47
2019-01-12T04:42:36.881Z,859.33
2019-01-12T04:45:05.632Z,884.37
2019-01-12T04:47:33.951Z,949.93
2019-01-12T04:50:02.239Z,948.20
2019-01-12T04:52:30.537Z,977.43
2019-01-12T04:54:58.817Z,960.10
2019-01-12T04:57:27.114Z,908.70
2019-01-12T04:59:55.398Z,952.80
2019-01-12T05:02:23.710Z,824.23
2019-01-12T05:04:52.002Z,847.70
2019-01-12T05:07:20.307Z,904.97
2019-01-12T05:09:48.964Z,846.83
2019-01-12T05:12:17.280Z,977.00
2019-01-12T05:14:45.609Z,834.67
2019-01-12T05:17:13.910Z,899.83
2019-01-12T05:19:42.197Z,925.40
2019-01-12T05:22:10.738Z,917.30
2019-01-12T05:24:39.035Z,884.30
2019-01-12T05:27:07.332Z,944.07
2019-01-12T05:29:35.703Z,771.67
2019-01-12T05:32:04.010Z,954.97
2019-01-12T05:34:32.299Z,777.13
2019-01-12T05:37:00.599Z,998.43
2019-01-12T05:39:29.138Z,975.87
2019-01-12T05:41:57.430Z,992.57
2019-01-12T05:44:25.741Z,998.13
2019-01-12T05:46:54.110Z,999.90
2019-01-12T05:49:22.411Z,999.90
2019-01-12T05:51:50.688Z,999.90
2019-01-12T05:54:18.994Z,999.90
2019-01-12T05:56:47.285Z,997.00
2019-01-12T05:59:15.842Z,999.90
2019-01-12T06:01:44.383Z,954.77
2019-01-12T06:04:12.697Z,994.40
2019-01-12T06:06:40.985Z,999.90
2019-01-12T06:09:09.534Z,999.90
2019-01-12T06:11:37.817Z,994.20
2019-01-12T06:14:06.113Z,999.90
2019-01-12T06:16:34.406Z,999.90
2019-01-12T06:19:02.953Z,999.90
2019-01-12T06:21:31.241Z,999.90
2019-01-12T06:23:59.807Z,999.90
2019-01-12T06:26:28.113Z,999.90
2019-01-12T06:28:56.409Z,999.90
2019-01-12T06:31:24.699Z,922.30
2019-01-12T06:33:54.022Z,999.90
2019-01-12T06:36:22.323Z,985.07
2019-01-12T06:38:50.719Z,893.67
2019-01-12T06:41:20.864Z,999.90
2019-01-12T06:43:49.237Z,999.37
2019-01-12T06:46:17.703Z,999.90
2019-01-12T06:48:46.069Z,999.90
2019-01-12T06:51:15.413Z,999.90
2019-01-12T06:53:43.858Z,999.90
2019-01-12T06:56:18.665Z,999.90
2019-01-12T06:58:47.936Z,984.50
2019-01-12T07:01:17.149Z,999.90
2019-01-12T07:03:45.790Z,977.97
2019-01-12T07:06:14.340Z,942.47
2019-01-12T07:08:43.358Z,947.47
2019-01-12T07:11:12.457Z,897.03
2019-01-12T07:13:41.086Z,948.07
2019-01-12T07:16:09.749Z,963.00
2019-01-12T07:18:38.689Z,940.67
2019-01-12T07:21:07.341Z,868.73
2019-01-12T07:23:36.145Z,942.63
2019-01-12T07:26:05.223Z,721.73
2019-01-12T07:28:33.951Z,745.47
2019-01-12T07:31:02.776Z,728.43
2019-01-12T07:33:31.434Z,613.77
2019-01-12T07:36:01.188Z,725.73
2019-01-12T07:38:29.814Z,629.70
2019-01-12T07:40:58.103Z,768.30
2019-01-12T07:43:26.391Z,782.40
2019-01-12T07:45:54.937Z,701.40
2019-01-12T07:48:23.478Z,795.60
2019-01-12T07:50:51.765Z,776.90
2019-01-12T07:53:20.298Z,696.77
2019-01-12T07:55:48.602Z,622.10
2019-01-12T07:58:17.235Z,726.47
2019-01-12T08:00:45.537Z,735.93
2019-01-12T08:03:14.096Z,747.90
2019-01-12T08:05:42.396Z,683.83
2019-01-12T08:08:10.755Z,774.47
2019-01-12T08:10:39.106Z,670.70
2019-01-12T08:13:07.706Z,719.30
2019-01-12T08:15:36.009Z,778.50
2019-01-12T08:18:04.378Z,792.90
2019-01-12T08:20:32.678Z,588.50
2019-01-12T08:23:00.994Z,652.57
2019-01-12T08:25:29.546Z,672.27
2019-01-12T08:27:57.843Z,654.93
2019-01-12T08:30:26.134Z,728.90
2019-01-12T08:32:54.418Z,715.30
2019-01-12T08:35:22.717Z,697.23
2019-01-12T08:37:51.850Z,834.30
2019-01-12T08:40:20.325Z,752.67
2019-01-12T08:42:48.803Z,779.80
2019-01-12T08:45:17.698Z,787.53
2019-01-12T08:47:46.002Z,785.93
2019-01-12T08:50:16.423Z,744.17
2019-01-12T08:52:44.701Z,776.23
2019-01-12T08:55:13.126Z,748.27
2019-01-12T08:57:41.497Z,907.23
2019-01-12T09:00:14.698Z,892.77
2019-01-12T09:02:43.370Z,836.10
2019-01-12T09:05:11.683Z,741.70
2019-01-12T09:07:40.337Z,954.83
2019-01-12T09:10:10.463Z,882.70
2019-01-12T09:12:38.778Z,878.60
2019-01-12T09:15:07.518Z,980.90
2019-01-12T09:17:35.823Z,999.90
2019-01-12T09:20:05.057Z,972.67
2019-01-12T09:22:33.350Z,980.40
2019-01-12T09:25:01.694Z,999.90
2019-01-12T09:27:30.325Z,992.93
2019-01-12T09:29:58.654Z,956.63
2019-01-12T09:32:27.004Z,939.97
2019-01-12T09:34:55.422Z,839.50
2019-01-12T09:37:24.036Z,942.33
2019-01-12T09:39:52.758Z,851.40
2019-01-12T09:42:21.052Z,999.90
2019-01-12T09:44:49.338Z,999.90
2019-01-12T09:47:17.642Z,999.90
2019-01-12T09:49:45.926Z,950.63
2019-01-12T09:52:14.288Z,999.90
2019-01-12T09:54:42.816Z,999.90
2019-01-12T09:57:11.575Z,999.90
2019-01-12T09:59:40.264Z,999.90
2019-01-12T10:02:08.823Z,999.90
2019-01-12T10:04:37.162Z,999.90
2019-01-12T10:07:05.466Z,999.90
2019-01-12T10:09:34.098Z,999.90
2019-01-12T10:12:02.405Z,999.90
2019-01-12T10:14:30.689Z,999.90
2019-01-12T10:16:59.539Z,999.90
2019-01-12T10:19:28.242Z,999.90
2019-01-12T10:21:56.709Z,999.90
2019-01-12T10:24:25.094Z,999.90
2019-01-12T10:26:58.447Z,999.90
2019-01-12T10:29:23.898Z,999.90
2019-01-12T10:31:52.186Z,999.90
2019-01-12T10:34:20.571Z,999.90
2019-01-12T10:36:49.127Z,999.90
2019-01-12T10:39:18.030Z,999.90
2019-01-12T10:41:46.541Z,999.90
2019-01-12T10:44:14.934Z,999.90
2019-01-12T10:46:43.254Z,999.90
2019-01-12T10:49:12.287Z,999.90
2019-01-12T10:51:40.663Z,999.90
2019-01-12T10:54:09.027Z,999.90
2019-01-12T10:56:37.378Z,999.90
2019-01-12T10:59:05.690Z,999.90
2019-01-12T11:01:34.241Z,999.90
2019-01-12T11:04:02.787Z,999.90
2019-01-12T11:06:31.094Z,999.90
2019-01-12T11:08:59.969Z,999.00
2019-01-12T11:11:28.593Z,999.90
2019-01-12T11:13:56.901Z,999.90
2019-01-12T11:16:25.203Z,999.90
2019-01-12T11:18:53.555Z,992.83
2019-01-12T11:21:22.018Z,999.90
2019-01-12T11:23:50.329Z,999.90
2019-01-12T11:26:18.666Z,999.90
2019-01-12T11:28:46.979Z,964.90
2019-01-12T11:31:19.763Z,999.90
2019-01-12T11:33:46.420Z,999.90
2019-01-12T11:36:14.709Z,999.90
2019-01-12T11:38:43.034Z,999.90
2019-01-12T11:41:11.322Z,999.90
2019-01-12T11:43:39.970Z,999.90
2019-01-12T11:46:08.266Z,999.90
2019-01-12T11:48:36.814Z,999.90
2019-01-12T11:51:10.249Z,999.90
2019-01-12T11:53:38.546Z,999.90
2019-01-12T11:56:07.216Z,999.90
2019-01-12T11:58:35.907Z,999.90
2019-01-12T12:01:04.899Z,999.90
2019-01-12T12:03:33.270Z,999.90
2019-01-12T12:06:01.547Z,999.90
2019-01-12T12:08:29.845Z,999.90
2019-01-12T12:10:58.133Z,999.90
2019-01-12T12:13:26.425Z,999.90
2019-01-12T12:15:54.705Z,999.90
2019-01-12T12:18:23.007Z,999.90
2019-01-12T12:20:51.557Z,999.90
2019-01-12T12:23:19.921Z,999.90
2019-01-12T12:25:48.498Z,999.90
2019-01-12T12:28:17.233Z,999.90
2019-01-12T12:30:45.522Z,999.90
2019-01-12T12:33:13.853Z,999.90
2019-01-12T12:35:42.202Z,999.90
2019-01-12T12:38:10.692Z,999.90
2019-01-12T12:40:38.964Z,999.90
2019-01-12T12:43:07.415Z,999.90
2019-01-12T12:45:36.234Z,999.90
2019-01-12T12:48:05.285Z,999.90
2019-01-12T12:50:33.743Z,999.90
2019-01-12T12:53:02.151Z,985.30
2019-01-12T12:55:30.809Z,999.90
2019-01-12T12:57:59.550Z,999.90
2019-01-12T13:00:29.622Z,999.90
2019-01-12T13:02:58.572Z,999.90
2019-01-12T13:05:26.932Z,999.90
2019-01-12T13:07:55.475Z,999.90
2019-01-12T13:10:25.408Z,999.90
2019-01-12T13:12:54.162Z,999.90
2019-01-12T13:15:22.558Z,999.90
2019-01-12T13:17:50.862Z,999.90
2019-01-12T13:20:20.514Z,999.90
2019-01-12T13:22:49.680Z,999.90
2019-01-12T13:25:18.076Z,996.67
2019-01-12T13:27:46.712Z,999.90
2019-01-12T13:30:16.563Z,999.90
2019-01-12T13:32:44.928Z,999.90
2019-01-12T13:35:13.234Z,999.90
2019-01-12T13:37:41.516Z,999.90
2019-01-12T13:40:10.606Z,998.13
2019-01-12T13:42:38.942Z,999.90
2019-01-12T13:45:08.184Z,999.90
2019-01-12T13:47:36.535Z,999.90
2019-01-12T13:50:05.602Z,999.90
2019-01-12T13:52:33.961Z,999.90
2019-01-12T13:55:02.266Z,999.90
2019-01-12T13:57:30.571Z,999.90
2019-01-12T13:59:59.341Z,999.90
2019-01-12T14:02:27.705Z,999.90
2019-01-12T14:04:56.070Z,996.00
2019-01-12T14:07:24.370Z,971.97
2019-01-12T14:09:52.675Z,999.90
2019-01-12T14:12:21.029Z,996.47
2019-01-12T14:14:49.325Z,978.20
2019-01-12T14:17:17.674Z,999.90
2019-01-12T14:19:45.987Z,999.90
2019-01-12T14:22:14.282Z,999.90
2019-01-12T14:24:42.607Z,990.93
2019-01-12T14:27:10.902Z,999.90
2019-01-12T14:29:39.206Z,999.90
2019-01-12T14:32:07.486Z,995.70
2019-01-12T14:34:36.291Z,999.90
2019-01-12T14:37:04.798Z,999.90
2019-01-12T14:39:33.089Z,996.57
2019-01-12T14:42:01.488Z,999.90
2019-01-12T14:44:29.855Z,999.90
2019-01-12T14:46:58.408Z,999.90
2019-01-12T14:49:26.695Z,999.90
2019-01-12T14:51:55.248Z,999.90
2019-01-12T14:54:23.537Z,999.90
2019-01-12T14:56:51.838Z,999.90
2019-01-12T14:59:20.151Z,999.90
2019-01-12T15:01:48.525Z,999.90
2019-01-12T15:04:16.799Z,998.73
2019-01-12T15:06:45.214Z,999.90
2019-01-12T15:09:13.538Z,999.90
2019-01-12T15:11:42.423Z,999.90
2019-01-12T15:14:10.786Z,999.90
2019-01-12T15:16:39.185Z,999.90
2019-01-12T15:19:07.550Z,999.90
2019-01-12T15:21:36.429Z,999.90
2019-01-12T15:24:04.977Z,999.90
2019-01-12T15:26:33.530Z,999.90
2019-01-12T15:29:02.135Z,999.90
2019-01-12T15:31:30.496Z,999.90
2019-01-12T15:33:58.773Z,999.90
2019-01-12T15:36:27.145Z,999.90
2019-01-12T15:38:55.503Z,999.90
2019-01-12T15:41:23.978Z,999.90
2019-01-12T15:43:52.817Z,999.90
2019-01-12T15:46:21.271Z,999.90
2019-01-12T15:48:49.663Z,999.90
2019-01-12T15:51:17.966Z,999.90
2019-01-12T15:53:46.284Z,999.90
2019-01-12T15:56:14.654Z,999.90
2019-01-12T15:58:42.978Z,999.90
2019-01-12T16:01:11.547Z,999.90
2019-01-12T16:03:39.834Z,999.90
2019-01-12T16:06:08.181Z,999.90
2019-01-12T16:08:36.544Z,999.90
2019-01-12T16:11:05.102Z,999.90
2019-01-12T16:13:33.666Z,999.90
2019-01-12T16:16:01.972Z,999.90
2019-01-12T16:18:30.619Z,999.90
2019-01-12T16:20:59.221Z,999.90
2019-01-12T16:23:27.519Z,999.90
2019-01-12T16:25:56.154Z,999.90
2019-01-12T16:28:24.430Z,999.90
2019-01-12T16:30:52.769Z,999.90
2019-01-12T16:33:21.180Z,999.90
2019-01-12T16:35:49.530Z,999.90
2019-01-12T16:38:17.833Z,999.90
2019-01-12T16:40:46.377Z,999.90
2019-01-12T16:43:14.755Z,999.90
2019-01-12T16:45:43.406Z,999.90
2019-01-12T16:48:11.710Z,999.90
2019-01-12T16:50:40.123Z,999.90
2019-01-12T16:53:08.410Z,999.90
2019-01-12T16:55:37.025Z,999.90
2019-01-12T16:58:05.390Z,999.90
2019-01-12T17:00:34.007Z,999.90
2019-01-12T17:03:02.594Z,999.90
2019-01-12T17:05:31.315Z,999.90
2019-01-12T17:07:59.974Z,981.67
2019-01-12T17:10:28.370Z,999.90
2019-01-12T17:12:56.671Z,999.90
2019-01-12T17:15:24.954Z,999.90
2019-01-12T17:17:53.578Z,999.90
2019-01-12T17:20:23.009Z,999.90
2019-01-12T17:22:51.759Z,999.90
2019-01-12T17:25:20.238Z,999.90
2019-01-12T17:27:48.541Z,999.90
2019-01-12T17:30:17.951Z,999.90
2019-01-12T17:32:46.244Z,999.90
2019-01-12T17:35:14.666Z,999.90
2019-01-12T17:37:43.424Z,999.90
2019-01-12T17:40:12.227Z,999.90
2019-01-12T17:42:40.622Z,999.90
2019-01-12T17:45:13.073Z,999.90
2019-01-12T17:47:41.525Z,999.90
2019-01-12T17:50:10.733Z,999.90
2019-01-12T17:52:39.048Z,999.90
2019-01-12T17:55:08.523Z,999.90
2019-01-12T17:57:37.067Z,999.90
2019-01-12T18:00:06.417Z,999.90
2019-01-12T18:02:34.693Z,999.90
2019-01-12T18:05:03.118Z,999.90
2019-01-12T18:07:31.402Z,999.90
2019-01-12T18:09:59.790Z,999.90
2019-01-12T18:12:28.078Z,999.90
2019-01-12T18:14:56.373Z,999.90
2019-01-12T18:17:24.719Z,999.90
2019-01-12T18:19:53.015Z,999.90
2019-01-12T18:22:21.306Z,999.90
2019-01-12T18:24:49.594Z,999.90
2019-01-12T18:27:17.888Z,999.90
2019-01-12T18:29:46.179Z,999.90
2019-01-12T18:32:14.722Z,999.90
2019-01-12T18:34:43.275Z,999.90
2019-01-12T18:37:11.558Z,999.90
2019-01-12T18:39:40.131Z,999.90
2019-01-12T18:42:08.429Z,999.90
2019-01-12T18:44:36.814Z,999.90
2019-01-12T18:47:05.460Z,999.90
2019-01-12T18:49:33.766Z,999.90
2019-01-12T18:52:02.056Z,999.90
2019-01-12T18:54:30.478Z,999.90
2019-01-12T18:56:59.347Z,999.90
2019-01-12T18:59:27.679Z,999.90
2019-01-12T19:01:55.962Z,999.90
2019-01-12T19:04:24.266Z,999.90
2019-01-12T19:06:52.930Z,999.90
2019-01-12T19:09:21.313Z,999.90
2019-01-12T19:11:49.683Z,999.90
2019-01-12T19:14:18.215Z,999.90
2019-01-12T19:16:46.601Z,999.90
2019-01-12T19:19:14.957Z,999.90
2019-01-12T19:21:43.282Z,999.90
2019-01-12T19:24:11.570Z,999.90
2019-01-12T19:26:39.933Z,999.90
2019-01-12T19:29:08.213Z,993.73
2019-01-12T19:31:36.514Z,999.90
2019-01-12T19:34:04.807Z,999.90
2019-01-12T19:36:33.185Z,999.90
2019-01-12T19:39:01.473Z,999.90
2019-01-12T19:41:29.778Z,999.90
2019-01-12T19:43:58.061Z,994.30
2019-01-12T19:46:26.464Z,999.90
2019-01-12T19:48:54.747Z,999.90
2019-01-12T19:51:23.046Z,996.87
2019-01-12T19:53:51.435Z,999.90
2019-01-12T19:56:19.734Z,999.90
2019-01-12T19:58:48.033Z,999.90
2019-01-12T20:01:16.322Z,999.90
2019-01-12T20:03:44.865Z,999.90
2019-01-12T20:06:17.030Z,999.90
2019-01-12T20:08:43.179Z,999.90
2019-01-12T20:11:11.490Z,999.90
2019-01-12T20:13:39.773Z,999.90
2019-01-12T20:16:08.129Z,999.90
2019-01-12T20:18:36.418Z,999.90
2019-01-12T20:21:04.786Z,999.90
2019-01-12T20:23:33.071Z,999.90
2019-01-12T20:26:01.628Z,999.90
2019-01-12T20:28:29.917Z,999.90
2019-01-12T20:31:12.990Z,999.90
2019-01-12T20:34:00.586Z,999.90
2019-01-12T20:36:34.785Z,999.90
2019-01-12T20:39:08.830Z,999.90
2019-01-12T20:42:08.566Z,999.90
2019-01-12T20:44:50.359Z,999.90
2019-01-12T20:47:53.001Z,999.90
2019-01-12T20:50:27.356Z,999.90
2019-01-12T20:53:01.658Z,999.90
2019-01-12T20:55:37.088Z,999.90
2019-01-12T20:58:27.784Z,999.90
2019-01-12T21:01:10.834Z,999.90
2019-01-12T21:03:57.507Z,999.90
2019-01-12T21:06:34.051Z,999.90
2019-01-12T21:09:27.427Z,999.90
2019-01-12T21:12:13.637Z,999.90
2019-01-12T21:14:53.503Z,999.90
2019-01-12T21:17:22.174Z,999.90
2019-01-12T21:19:50.821Z,999.90
2019-01-12T21:22:19.233Z,999.90
2019-01-12T21:24:47.610Z,999.90
2019-01-12T21:27:15.894Z,999.90
2019-01-12T21:29:44.274Z,999.90
2019-01-12T21:32:12.700Z,999.90
2019-01-12T21:34:40.998Z,999.90
2019-01-12T21:37:09.397Z,999.90
2019-01-12T21:39:37.700Z,999.90
2019-01-12T21:42:05.978Z,999.90
2019-01-12T21:44:34.286Z,999.90
2019-01-12T21:47:02.758Z,998.67
2019-01-12T21:49:31.066Z,999.90
2019-01-12T21:51:59.615Z,999.90
2019-01-12T21:54:27.975Z,999.90
2019-01-12T21:56:56.310Z,999.90
2019-01-12T21:59:24.955Z,999.90
2019-01-12T22:01:53.273Z,999.90
2019-01-12T22:04:21.618Z,999.90
2019-01-12T22:06:50.163Z,999.90
2019-01-12T22:09:18.637Z,999.90
2019-01-12T22:11:47.251Z,999.90
2019-01-12T22:14:15.590Z,999.90
2019-01-12T22:16:44.274Z,999.90
2019-01-12T22:19:13.022Z,999.90
2019-01-12T22:21:41.329Z,995.40
2019-01-12T22:24:09.666Z,999.90
2019-01-12T22:26:38.225Z,999.90
2019-01-12T22:29:06.505Z,999.90
2019-01-12T22:31:34.805Z,999.90
2019-01-12T22:34:03.108Z,999.90
2019-01-12T22:36:31.574Z,999.90
2019-01-12T22:39:00.046Z,999.90
2019-01-12T22:41:28.353Z,999.90
2019-01-12T22:43:56.970Z,999.90
2019-01-12T22:46:25.332Z,999.90
2019-01-12T22:48:53.955Z,999.90
2019-01-12T22:51:22.292Z,999.90
2019-01-12T22:53:50.570Z,999.90
2019-01-12T22:56:18.937Z,999.90
2019-01-12T22:58:47.382Z,999.90
2019-01-12T23:01:20.464Z,999.90
2019-01-12T23:03:48.809Z,999.90
2019-01-12T23:06:17.203Z,999.90
2019-01-12T23:08:45.505Z,999.90
2019-01-12T23:11:13.915Z,999.90
2019-01-12T23:13:42.297Z,999.90
